createdAt,value
2018-06-20T00:00:16.460Z,13.77
2018-06-20T00:02:44.308Z,13.73
2018-06-20T00:05:12.110Z,13.73
2018-06-20T00:07:39.756Z,13.66
2018-06-20T00:10:07.661Z,13.61
2018-06-20T00:12:35.386Z,13.55
2018-06-20T00:15:03.123Z,13.18
2018-06-20T00:17:30.799Z,13.47
2018-06-20T00:19:58.679Z,13.43
2018-06-20T00:22:26.395Z,13.38
2018-06-20T00:24:54.050Z,13.35
2018-06-20T00:27:21.776Z,13.33
2018-06-20T00:29:49.381Z,13.32
2018-06-20T00:32:17.232Z,13.30
2018-06-20T00:34:44.971Z,13.24
2018-06-20T00:37:12.604Z,13.22
2018-06-20T00:39:40.474Z,13.22
2018-06-20T00:42:08.326Z,13.19
2018-06-20T00:44:36.091Z,13.16
2018-06-20T00:47:03.995Z,13.14
2018-06-20T00:49:31.822Z,13.11
2018-06-20T00:51:59.574Z,13.08
2018-06-20T00:54:27.403Z,13.03
2018-06-20T00:56:55.190Z,13.02
2018-06-20T00:59:22.813Z,13.00
2018-06-20T01:01:50.592Z,12.97
2018-06-20T01:04:18.398Z,12.96
2018-06-20T01:06:46.039Z,12.96
2018-06-20T01:09:13.856Z,12.95
2018-06-20T01:11:41.742Z,12.91
2018-06-20T01:14:09.358Z,12.90
2018-06-20T01:16:37.081Z,12.91
2018-06-20T01:19:04.904Z,12.91
2018-06-20T01:21:32.552Z,12.90
2018-06-20T01:24:00.416Z,12.89
2018-06-20T01:26:28.138Z,12.88
2018-06-20T01:28:55.744Z,12.89
2018-06-20T01:31:23.565Z,12.78
2018-06-20T01:33:51.461Z,12.92
2018-06-20T01:36:19.309Z,12.92
2018-06-20T01:38:47.115Z,12.93
2018-06-20T01:41:14.982Z,12.93
2018-06-20T01:43:42.589Z,12.93
2018-06-20T01:46:10.519Z,12.93
2018-06-20T01:48:38.314Z,12.91
2018-06-20T01:51:05.869Z,12.92
2018-06-20T01:53:33.726Z,12.92
2018-06-20T01:56:01.492Z,12.91
2018-06-20T01:58:29.167Z,12.90
2018-06-20T02:00:56.909Z,12.85
2018-06-20T02:03:24.752Z,12.90
2018-06-20T02:05:52.368Z,12.89
2018-06-20T02:08:20.155Z,12.89
2018-06-20T02:10:47.969Z,12.90
2018-06-20T02:13:15.593Z,12.90
2018-06-20T02:15:43.503Z,12.88
2018-06-20T02:18:11.322Z,12.86
2018-06-20T02:20:39.006Z,12.55
2018-06-20T02:23:06.883Z,12.88
2018-06-20T02:25:34.727Z,12.88
2018-06-20T02:28:02.426Z,12.86
2018-06-20T02:30:30.137Z,12.86
2018-06-20T02:32:57.891Z,12.88
2018-06-20T02:35:25.542Z,12.89
2018-06-20T02:37:53.483Z,12.91
2018-06-20T02:40:21.366Z,12.92
2018-06-20T02:42:49.021Z,12.92
2018-06-20T02:45:16.857Z,12.96
2018-06-20T02:47:44.789Z,12.96
2018-06-20T02:50:13.331Z,12.99
2018-06-20T02:52:41.084Z,13.01
2018-06-20T02:55:08.828Z,13.02
2018-06-20T02:57:36.606Z,13.04
2018-06-20T03:00:05.779Z,13.06
2018-06-20T03:02:33.443Z,13.09
2018-06-20T03:05:01.121Z,13.11
2018-06-20T03:07:28.950Z,13.13
2018-06-20T03:09:56.924Z,13.15
2018-06-20T03:12:24.549Z,13.17
2018-06-20T03:14:52.315Z,13.19
2018-06-20T03:17:20.174Z,13.21
2018-06-20T03:19:47.788Z,13.23
2018-06-20T03:22:15.679Z,13.25
2018-06-20T03:24:43.508Z,13.28
2018-06-20T03:27:11.057Z,13.06
2018-06-20T03:29:38.948Z,13.30
2018-06-20T03:32:06.810Z,13.31
2018-06-20T03:34:34.406Z,13.32
2018-06-20T03:37:02.114Z,13.32
2018-06-20T03:39:30.020Z,13.34
2018-06-20T03:41:57.650Z,13.38
2018-06-20T03:44:25.511Z,13.40
2018-06-20T03:46:53.416Z,13.40
2018-06-20T03:49:21.432Z,13.44
2018-06-20T03:51:49.260Z,13.47
2018-06-20T03:54:17.075Z,13.49
2018-06-20T03:56:44.665Z,13.50
2018-06-20T03:59:12.528Z,13.53
2018-06-20T04:01:40.400Z,13.56
2018-06-20T04:04:08.030Z,13.52
2018-06-20T04:06:35.799Z,13.59
2018-06-20T04:09:06.084Z,13.62
2018-06-20T04:11:33.682Z,13.65
2018-06-20T04:14:01.536Z,13.68
2018-06-20T04:16:29.365Z,13.70
2018-06-20T04:18:56.999Z,13.72
2018-06-20T04:21:24.776Z,13.75
2018-06-20T04:23:52.606Z,13.80
2018-06-20T04:26:20.258Z,13.83
2018-06-20T04:28:47.925Z,13.87
2018-06-20T04:31:15.695Z,13.88
2018-06-20T04:33:43.357Z,13.91
2018-06-20T04:36:11.209Z,13.93
2018-06-20T04:38:38.867Z,13.96
2018-06-20T04:41:06.541Z,13.98
2018-06-20T04:43:34.326Z,14.02
2018-06-20T04:46:03.009Z,14.05
2018-06-20T04:48:30.640Z,14.10
2018-06-20T04:50:58.645Z,14.13
2018-06-20T04:53:26.513Z,14.15
2018-06-20T04:55:54.112Z,14.16
2018-06-20T04:58:21.950Z,14.19
2018-06-20T05:00:49.723Z,14.22
2018-06-20T05:03:17.517Z,14.24
2018-06-20T05:05:45.369Z,14.28
2018-06-20T05:08:13.165Z,14.32
2018-06-20T05:10:40.789Z,14.34
2018-06-20T05:13:08.440Z,14.38
2018-06-20T05:15:36.171Z,14.42
2018-06-20T05:18:03.827Z,14.45
2018-06-20T05:20:31.549Z,14.49
2018-06-20T05:22:59.350Z,14.52
2018-06-20T05:25:27.087Z,14.54
2018-06-20T05:27:54.843Z,14.57
2018-06-20T05:30:22.516Z,14.62
2018-06-20T05:32:50.125Z,14.66
2018-06-20T05:35:17.958Z,14.70
2018-06-20T05:37:45.671Z,14.76
2018-06-20T05:40:13.333Z,14.80
2018-06-20T05:42:41.143Z,14.87
2018-06-20T05:45:08.805Z,14.91
2018-06-20T05:47:36.494Z,14.94
2018-06-20T05:50:04.340Z,15.00
2018-06-20T05:52:32.476Z,15.04
2018-06-20T05:55:00.149Z,15.07
2018-06-20T05:57:27.923Z,15.11
2018-06-20T05:59:55.870Z,15.17
2018-06-20T06:02:23.453Z,15.23
2018-06-20T06:04:51.301Z,15.25
2018-06-20T06:07:19.034Z,15.25
2018-06-20T06:09:46.636Z,15.27
2018-06-20T06:12:14.438Z,15.31
2018-06-20T06:14:42.267Z,15.35
2018-06-20T06:17:09.995Z,15.38
2018-06-20T06:19:37.815Z,15.44
2018-06-20T06:22:05.749Z,15.47
2018-06-20T06:24:33.404Z,15.52
2018-06-20T06:27:01.107Z,15.56
2018-06-20T06:29:28.911Z,15.58
2018-06-20T06:31:56.493Z,15.60
2018-06-20T06:34:24.349Z,15.63
2018-06-20T06:36:52.046Z,15.66
2018-06-20T06:39:19.727Z,15.70
2018-06-20T06:41:47.376Z,15.73
2018-06-20T06:44:15.172Z,15.76
2018-06-20T06:46:42.764Z,15.81
2018-06-20T06:49:10.544Z,15.85
2018-06-20T06:51:38.331Z,15.60
2018-06-20T06:54:06.152Z,15.96
2018-06-20T06:56:34.025Z,16.01
2018-06-20T06:59:01.940Z,16.06
2018-06-20T07:01:29.591Z,16.11
2018-06-20T07:03:57.418Z,16.16
2018-06-20T07:06:25.259Z,16.19
2018-06-20T07:08:52.842Z,16.22
2018-06-20T07:11:20.442Z,16.26
2018-06-20T07:13:48.195Z,16.31
2018-06-20T07:16:15.858Z,16.36
2018-06-20T07:18:43.593Z,16.40
2018-06-20T07:21:11.407Z,16.48
2018-06-20T07:23:39.008Z,16.53
2018-06-20T07:26:06.612Z,16.56
2018-06-20T07:28:34.503Z,16.62
2018-06-20T07:31:02.095Z,16.70
2018-06-20T07:33:30.038Z,16.75
2018-06-20T07:35:58.093Z,16.79
2018-06-20T07:38:25.636Z,16.78
2018-06-20T07:40:53.239Z,16.83
2018-06-20T07:43:20.952Z,16.84
2018-06-20T07:45:48.537Z,16.87
2018-06-20T07:48:16.406Z,16.87
2018-06-20T07:50:44.155Z,16.86
2018-06-20T07:53:11.765Z,16.90
2018-06-20T07:55:39.926Z,16.96
2018-06-20T07:58:07.832Z,17.02
2018-06-20T08:00:41.159Z,17.07
2018-06-20T08:03:16.361Z,17.09
2018-06-20T08:05:49.743Z,17.09
2018-06-20T08:08:23.208Z,17.06
2018-06-20T08:10:56.386Z,17.07
2018-06-20T08:13:29.774Z,17.07
2018-06-20T08:16:03.180Z,17.10
2018-06-20T08:18:36.551Z,17.11
2018-06-20T08:21:04.671Z,17.10
2018-06-20T08:23:32.459Z,17.12
2018-06-20T08:26:00.259Z,17.14
2018-06-20T08:28:27.887Z,17.17
2018-06-20T08:30:55.628Z,17.21
2018-06-20T08:33:23.355Z,17.29
2018-06-20T08:35:51.063Z,17.33
2018-06-20T08:38:18.856Z,17.34
2018-06-20T08:40:46.537Z,17.39
2018-06-20T08:43:14.232Z,17.44
2018-06-20T08:45:42.036Z,17.45
2018-06-20T08:48:09.649Z,17.47
2018-06-20T08:50:37.417Z,17.50
2018-06-20T08:53:05.328Z,17.52
2018-06-20T08:55:32.989Z,17.54
2018-06-20T08:58:00.781Z,17.53
2018-06-20T09:00:33.882Z,17.54
2018-06-20T09:03:01.642Z,17.57
2018-06-20T09:05:35.016Z,17.60
2018-06-20T09:08:08.250Z,17.63
2018-06-20T09:10:41.408Z,17.68
2018-06-20T09:13:14.576Z,17.70
2018-06-20T09:15:47.936Z,17.73
2018-06-20T09:18:21.162Z,17.76
2018-06-20T09:20:49.090Z,17.80
2018-06-20T09:23:16.682Z,17.82
2018-06-20T09:25:44.315Z,17.80
2018-06-20T09:28:12.109Z,17.78
2018-06-20T09:30:39.727Z,17.80
2018-06-20T09:33:07.364Z,17.82
2018-06-20T09:35:35.388Z,17.82
2018-06-20T09:38:02.944Z,17.86
2018-06-20T09:40:30.747Z,17.93
2018-06-20T09:42:58.508Z,18.05
2018-06-20T09:45:26.109Z,18.15
2018-06-20T09:47:53.751Z,18.25
2018-06-20T09:50:26.924Z,18.39
2018-06-20T09:52:54.542Z,18.67
2018-06-20T09:55:22.256Z,18.78
2018-06-20T09:57:49.858Z,18.82
2018-06-20T10:00:23.401Z,19.09
2018-06-20T10:02:56.477Z,19.16
2018-06-20T10:05:29.642Z,19.21
2018-06-20T10:08:03.079Z,19.27
2018-06-20T10:10:36.254Z,19.38
2018-06-20T10:13:09.755Z,19.39
2018-06-20T10:15:37.412Z,19.45
2018-06-20T10:18:05.260Z,19.47
2018-06-20T10:20:32.922Z,19.40
2018-06-20T10:23:00.795Z,19.37
2018-06-20T10:25:29.191Z,19.50
2018-06-20T10:27:57.475Z,19.71
2018-06-20T10:30:25.305Z,19.74
2018-06-20T10:32:53.551Z,19.75
2018-06-20T10:35:21.476Z,19.73
2018-06-20T10:37:49.185Z,19.84
2018-06-20T10:40:17.137Z,20.03
2018-06-20T10:42:44.788Z,20.24
2018-06-20T10:45:18.010Z,20.33
2018-06-20T10:47:47.027Z,20.49
2018-06-20T10:50:14.710Z,20.69
2018-06-20T10:52:42.326Z,20.75
2018-06-20T10:55:14.429Z,20.84
2018-06-20T10:57:47.535Z,20.82
2018-06-20T11:00:20.835Z,20.76
2018-06-20T11:03:01.986Z,20.71
2018-06-20T11:05:35.261Z,20.69
2018-06-20T11:08:08.445Z,20.60
2018-06-20T11:10:41.774Z,20.53
2018-06-20T11:13:11.537Z,20.47
2018-06-20T11:15:39.387Z,20.48
2018-06-20T11:18:07.068Z,20.56
2018-06-20T11:20:40.302Z,20.63
2018-06-20T11:23:08.304Z,20.77
2018-06-20T11:25:35.914Z,20.95
2018-06-20T11:28:10.445Z,21.11
2018-06-20T11:30:38.614Z,21.25
2018-06-20T11:33:06.243Z,21.21
2018-06-20T11:35:33.868Z,21.16
2018-06-20T11:38:01.855Z,21.18
2018-06-20T11:40:29.496Z,21.28
2018-06-20T11:42:57.128Z,21.35
2018-06-20T11:45:29.543Z,21.51
2018-06-20T11:47:57.373Z,21.66
2018-06-20T11:50:25.173Z,21.75
2018-06-20T11:52:58.480Z,21.80
2018-06-20T11:55:31.864Z,21.80
2018-06-20T11:58:05.035Z,21.80
2018-06-20T12:00:38.264Z,21.91
2018-06-20T12:03:11.725Z,21.88
2018-06-20T12:05:45.055Z,21.85
2018-06-20T12:08:18.255Z,21.85
2018-06-20T12:10:51.652Z,21.90
2018-06-20T12:13:24.923Z,21.93
2018-06-20T12:15:58.394Z,21.90
2018-06-20T12:18:31.615Z,21.73
2018-06-20T12:21:05.070Z,21.51
2018-06-20T12:23:38.284Z,21.31
2018-06-20T12:26:11.727Z,21.14
2018-06-20T12:28:44.368Z,20.98
2018-06-20T12:31:17.046Z,20.83
2018-06-20T12:33:50.166Z,20.83
2018-06-20T12:36:24.521Z,20.86
2018-06-20T12:38:57.684Z,20.79
2018-06-20T12:41:30.297Z,20.77
2018-06-20T12:44:02.936Z,20.41
2018-06-20T12:46:35.644Z,20.85
2018-06-20T12:49:02.943Z,20.82
2018-06-20T12:51:30.010Z,20.82
2018-06-20T12:53:57.183Z,20.90
2018-06-20T12:56:24.347Z,21.06
2018-06-20T12:58:51.420Z,21.16
2018-06-20T13:01:18.701Z,21.18
2018-06-20T13:03:46.652Z,21.11
2018-06-20T13:06:13.808Z,21.15
2018-06-20T13:08:41.045Z,21.12
2018-06-20T13:11:08.262Z,21.18
2018-06-20T13:13:35.310Z,21.17
2018-06-20T13:16:02.489Z,21.16
2018-06-20T13:18:29.670Z,21.15
2018-06-20T13:20:56.693Z,21.13
2018-06-20T13:23:23.797Z,21.12
2018-06-20T13:25:51.668Z,21.10
2018-06-20T13:28:18.678Z,20.74
2018-06-20T13:30:50.397Z,20.97
2018-06-20T13:33:23.048Z,20.87
2018-06-20T13:35:55.925Z,20.76
2018-06-20T13:38:28.475Z,20.74
2018-06-20T13:41:01.988Z,20.75
2018-06-20T13:44:33.778Z,20.75
2018-06-20T13:47:07.129Z,20.73
2018-06-20T13:49:34.466Z,20.43
2018-06-20T13:52:01.537Z,20.72
2018-06-20T13:54:28.773Z,20.70
2018-06-20T13:56:55.964Z,20.67
2018-06-20T13:59:23.720Z,20.70
2018-06-20T14:01:51.686Z,20.71
2018-06-20T14:04:19.579Z,20.70
2018-06-20T14:06:47.380Z,20.71
2018-06-20T14:09:14.564Z,20.70
2018-06-20T14:11:42.501Z,20.68
2018-06-20T14:14:10.105Z,20.63
2018-06-20T14:16:37.252Z,20.55
2018-06-20T14:19:04.527Z,20.51
2018-06-20T14:21:36.568Z,20.45
2018-06-20T14:24:04.124Z,20.40
2018-06-20T14:26:31.228Z,20.39
2018-06-20T14:28:58.272Z,20.39
2018-06-20T14:31:31.035Z,20.37
2018-06-20T14:34:03.682Z,20.38
2018-06-20T14:36:36.233Z,20.38
2018-06-20T14:39:10.832Z,20.34
2018-06-20T14:41:43.499Z,20.28
2018-06-20T14:44:11.019Z,20.21
2018-06-20T14:46:38.032Z,20.14
2018-06-20T14:49:06.081Z,20.03
2018-06-20T14:51:33.315Z,19.92
2018-06-20T14:54:00.947Z,19.87
2018-06-20T14:56:28.760Z,19.83
2018-06-20T14:58:56.813Z,19.78
2018-06-20T15:01:23.860Z,19.71
2018-06-20T15:03:51.724Z,19.68
2018-06-20T15:06:20.078Z,19.68
2018-06-20T15:08:47.688Z,19.72
2018-06-20T15:11:15.551Z,19.74
2018-06-20T15:13:43.372Z,19.69
2018-06-20T15:16:16.557Z,19.72
2018-06-20T15:18:44.544Z,19.79
2018-06-20T15:21:12.111Z,19.88
2018-06-20T15:23:39.739Z,19.99
2018-06-20T15:26:12.644Z,20.10
2018-06-20T15:28:45.299Z,20.18
2018-06-20T15:31:17.821Z,20.32
2018-06-20T15:33:50.514Z,20.42
2018-06-20T15:36:23.367Z,20.45
2018-06-20T15:38:50.701Z,20.43
2018-06-20T15:41:17.709Z,20.39
2018-06-20T15:43:44.989Z,20.47
2018-06-20T15:46:12.167Z,20.47
2018-06-20T15:48:39.163Z,20.35
2018-06-20T15:51:06.335Z,20.26
2018-06-20T15:53:33.559Z,20.24
2018-06-20T15:56:00.572Z,20.19
2018-06-20T15:58:27.760Z,20.11
2018-06-20T16:00:54.895Z,20.11
2018-06-20T16:03:22.139Z,20.12
2018-06-20T16:05:49.282Z,20.13
2018-06-20T16:08:16.691Z,20.09
2018-06-20T16:10:43.720Z,20.04
2018-06-20T16:13:10.805Z,20.04
2018-06-20T16:15:37.978Z,20.10
2018-06-20T16:18:05.012Z,20.19
2018-06-20T16:20:37.635Z,20.23
2018-06-20T16:23:10.343Z,20.24
2018-06-20T16:25:43.117Z,20.16
2018-06-20T16:28:16.434Z,20.10
2018-06-20T16:30:44.778Z,20.10
2018-06-20T16:33:12.424Z,20.02
2018-06-20T16:35:39.993Z,19.91
2018-06-20T16:38:07.962Z,19.84
2018-06-20T16:40:35.620Z,19.74
2018-06-20T16:43:03.311Z,19.62
2018-06-20T16:45:31.174Z,19.53
2018-06-20T16:47:58.810Z,19.48
2018-06-20T16:50:26.473Z,19.50
2018-06-20T16:52:54.575Z,19.46
2018-06-20T16:55:22.257Z,19.39
2018-06-20T16:57:49.958Z,19.32
2018-06-20T17:00:18.014Z,19.27
2018-06-20T17:02:45.650Z,19.25
2018-06-20T17:05:13.691Z,19.22
2018-06-20T17:07:41.611Z,19.20
2018-06-20T17:10:09.450Z,19.22
2018-06-20T17:12:42.813Z,19.18
2018-06-20T17:15:16.250Z,19.17
2018-06-20T17:17:49.384Z,19.13
2018-06-20T17:20:22.608Z,19.09
2018-06-20T17:22:58.895Z,19.05
2018-06-20T17:25:28.853Z,18.97
2018-06-20T17:27:56.457Z,18.94
2018-06-20T17:30:24.050Z,18.87
2018-06-20T17:32:51.782Z,18.85
2018-06-20T17:35:19.442Z,18.81
2018-06-20T17:37:47.172Z,18.80
2018-06-20T17:40:15.091Z,18.75
2018-06-20T17:42:42.741Z,18.73
2018-06-20T17:45:10.417Z,18.70
2018-06-20T17:47:38.448Z,18.72
2018-06-20T17:50:06.104Z,18.74
2018-06-20T17:52:33.692Z,18.78
2018-06-20T17:55:01.824Z,18.77
2018-06-20T17:57:29.424Z,18.75
2018-06-20T17:59:57.055Z,18.70
2018-06-20T18:02:25.185Z,18.64
2018-06-20T18:04:58.310Z,18.61
2018-06-20T18:07:31.760Z,18.56
2018-06-20T18:10:04.815Z,18.53
2018-06-20T18:12:37.134Z,18.51
2018-06-20T18:15:11.422Z,18.48
2018-06-20T18:17:39.416Z,18.45
2018-06-20T18:20:07.036Z,18.41
2018-06-20T18:22:34.599Z,18.38
2018-06-20T18:25:02.713Z,18.34
2018-06-20T18:27:30.301Z,18.30
2018-06-20T18:29:57.922Z,18.26
2018-06-20T18:32:25.918Z,18.25
2018-06-20T18:34:53.605Z,18.24
2018-06-20T18:37:21.281Z,18.21
2018-06-20T18:39:54.454Z,18.20
2018-06-20T18:42:22.373Z,18.19
2018-06-20T18:44:50.072Z,18.14
2018-06-20T18:47:23.405Z,18.14
2018-06-20T18:49:51.306Z,18.09
2018-06-20T18:52:18.955Z,18.03
2018-06-20T18:54:46.603Z,18.01
2018-06-20T18:57:19.707Z,17.99
2018-06-20T18:59:53.034Z,17.81
2018-06-20T19:02:26.460Z,17.96
2018-06-20T19:04:59.743Z,17.94
2018-06-20T19:07:33.142Z,17.90
2018-06-20T19:10:01.038Z,17.87
2018-06-20T19:12:28.627Z,17.83
2018-06-20T19:14:56.288Z,17.79
2018-06-20T19:17:23.839Z,17.77
2018-06-20T19:19:51.577Z,17.73
2018-06-20T19:22:19.145Z,17.68
2018-06-20T19:24:46.716Z,17.65
2018-06-20T19:27:14.402Z,17.61
2018-06-20T19:29:42.039Z,17.54
2018-06-20T19:32:09.924Z,17.47
2018-06-20T19:34:37.588Z,17.42
2018-06-20T19:37:05.220Z,17.39
2018-06-20T19:39:38.269Z,17.39
2018-06-20T19:42:06.131Z,17.37
2018-06-20T19:44:34.585Z,17.31
2018-06-20T19:47:03.426Z,17.26
2018-06-20T19:49:31.139Z,17.21
2018-06-20T19:51:58.772Z,17.15
2018-06-20T19:54:26.385Z,17.10
2018-06-20T19:56:54.400Z,17.07
2018-06-20T19:59:22.277Z,17.05
2018-06-20T20:01:50.191Z,17.01
2018-06-20T20:04:17.980Z,16.98
2018-06-20T20:06:45.757Z,16.94
2018-06-20T20:09:13.341Z,16.89
2018-06-20T20:11:41.707Z,16.85
2018-06-20T20:14:09.349Z,16.80
2018-06-20T20:16:37.270Z,16.76
2018-06-20T20:19:04.994Z,16.72
2018-06-20T20:21:32.909Z,16.68
2018-06-20T20:24:00.467Z,16.63
2018-06-20T20:26:28.232Z,16.57
2018-06-20T20:28:55.796Z,16.52
2018-06-20T20:31:23.425Z,16.49
2018-06-20T20:33:52.050Z,16.45
2018-06-20T20:36:19.702Z,16.41
2018-06-20T20:38:47.419Z,16.37
2018-06-20T20:41:15.201Z,16.35
2018-06-20T20:43:42.838Z,16.27
2018-06-20T20:46:10.450Z,16.24
2018-06-20T20:48:38.154Z,16.22
2018-06-20T20:51:05.794Z,16.22
2018-06-20T20:53:33.429Z,16.20
2018-06-20T20:56:01.220Z,16.18
2018-06-20T20:58:28.810Z,16.13
2018-06-20T21:00:56.420Z,16.06
2018-06-20T21:03:24.153Z,16.02
2018-06-20T21:05:51.738Z,15.94
2018-06-20T21:08:19.460Z,15.86
2018-06-20T21:10:47.492Z,15.80
2018-06-20T21:13:15.097Z,15.77
2018-06-20T21:15:42.711Z,15.75
2018-06-20T21:18:10.685Z,15.73
2018-06-20T21:20:38.449Z,15.66
2018-06-20T21:23:06.037Z,15.60
2018-06-20T21:25:33.990Z,15.58
2018-06-20T21:28:01.641Z,15.57
2018-06-20T21:30:29.357Z,15.53
2018-06-20T21:32:57.114Z,15.50
2018-06-20T21:35:24.668Z,15.47
2018-06-20T21:37:52.245Z,15.46
2018-06-20T21:40:20.047Z,15.45
2018-06-20T21:42:47.613Z,15.43
2018-06-20T21:45:15.171Z,15.33
2018-06-20T21:47:43.091Z,15.25
2018-06-20T21:50:10.644Z,15.17
2018-06-20T21:52:38.295Z,15.10
2018-06-20T21:55:06.120Z,15.03
2018-06-20T21:57:33.793Z,15.00
2018-06-20T22:00:01.500Z,14.99
2018-06-20T22:02:29.250Z,14.97
2018-06-20T22:04:56.870Z,14.95
2018-06-20T22:07:24.509Z,14.91
2018-06-20T22:09:52.455Z,14.90
2018-06-20T22:12:20.151Z,14.88
2018-06-20T22:14:47.730Z,14.86
2018-06-20T22:17:15.609Z,14.82
2018-06-20T22:19:43.334Z,14.78
2018-06-20T22:22:10.984Z,14.74
2018-06-20T22:24:38.818Z,14.73
2018-06-20T22:27:06.449Z,14.74
2018-06-20T22:29:34.090Z,14.70
2018-06-20T22:32:02.066Z,14.66
2018-06-20T22:34:29.621Z,14.63
2018-06-20T22:36:57.210Z,14.61
2018-06-20T22:39:25.406Z,14.57
2018-06-20T22:41:53.024Z,14.56
2018-06-20T22:44:20.645Z,14.55
2018-06-20T22:46:48.446Z,14.53
2018-06-20T22:49:16.096Z,14.49
2018-06-20T22:51:43.725Z,14.47
2018-06-20T22:54:11.861Z,14.45
2018-06-20T22:56:39.532Z,14.43
2018-06-20T22:59:07.079Z,14.40
2018-06-20T23:01:34.984Z,14.37
2018-06-20T23:04:02.608Z,14.34
2018-06-20T23:06:36.994Z,14.31
2018-06-20T23:09:07.109Z,14.27
2018-06-20T23:11:40.252Z,14.21
2018-06-20T23:14:08.226Z,14.17
2018-06-20T23:16:35.881Z,14.15
2018-06-20T23:19:03.563Z,14.14
2018-06-20T23:21:31.900Z,14.12
2018-06-20T23:23:59.470Z,14.07
2018-06-20T23:26:27.070Z,14.07
2018-06-20T23:28:54.927Z,14.05
2018-06-20T23:31:22.618Z,14.01
2018-06-20T23:33:50.299Z,13.97
2018-06-20T23:36:18.169Z,13.92
2018-06-20T23:38:45.736Z,13.89
2018-06-20T23:41:13.661Z,13.87
2018-06-20T23:43:41.839Z,13.84
2018-06-20T23:46:09.451Z,13.82
2018-06-20T23:48:37.117Z,13.81
2018-06-20T23:51:05.135Z,13.78
2018-06-20T23:53:32.808Z,13.78
2018-06-20T23:56:00.475Z,13.76
2018-06-20T23:58:28.585Z,13.73
